Airfield :
LOGIN :

Register | Disclaimer

   EN    FR    IT 

 










Legend :    VFR   Marginal VFR   IFR   Intensive IFR   Very Intensive IFR
Visi :
Ceiling :
>= 8 km
>= 3000ft
5 to 8 km
1000 to 3000 ft
1500m to 5 km
500 to 1000 ft
800 to 1500m
200 to 500 ft
< 800m
< 200 ft
Symbols :   Thunderstorms  Fog  Heavy snow  Heavy precipitations  Wind > 20 kt
SIGMETs :     Misc.  Thunderstorms  Icing  Turbulence  Mountain Waves  Volcanic Ashes






- Airport Elevation : 405 ft
- IATA code : ODH


EGVO - RAF Odiham

CURRENT METAR :
  • 261520Z AUTO 21016G27KT 9999 SCT029/// 17/09 Q1011

EXPIRED METARs :
  • 261450Z AUTO 21018KT 9999 FEW030/// 17/09 Q1011
  • 261420Z AUTO 21019KT 9999 BKN028/// 18/10 Q1011
  • 261350Z AUTO 20016KT 9999 SCT027/// 17/09 Q1011
  • 261320Z AUTO 19016KT 9999 // SCT024/// 18/11 Q1011
  • 261250Z AUTO 20013KT 9999 // SCT024/// BKN036/// 17/11 Q1011
  • 261220Z AUTO 20013KT 9999 // SCT024/// BKN046/// 16/09 Q1011
  • 261150Z AUTO 19012KT 9999 // FEW026/// BKN065/// 17/11 Q1011
  • 261120Z AUTO 20012KT 9999 FEW025/// 17/10 Q1011
  • 261050Z AUTO 20014KT 9999 OVC023/// 17/11 Q1011

Expired Forecast.



MET'MAP, your aeronautical weather chart ! - Copyright ORBIFLY December 2007 - Disclaimer

ORBIFLY MET'MAP TEAM :

Programming & Development : Alexandra Zaïnal
Original concept : Baudouin d'Aumeries
Technical & hardware support : Manuel Goepfert
Assistance : Marc-Olivier Méhu




SOURCES & CREDITS :

   NOAA